Latest Weather Observations for Albury

IDN60801

Issued at 5:05 pm EST Monday 21 April 2014 (issued every 30 minutes, with the page automatically refreshed every 10 minutes)

About weather observations | Map of weather stations | Latest weather observations for NSW | Other Formats
Station Details ID: 072160 Name: ALBURY AIRPORT AWS Lat: -36.07 Lon: 146.95 Height: 163.5 m
Data from the previous 72 hours. | See also: Recent months at Albury
Date/Time
EST
Temp
°C
App
Temp
°C
Dew
Point
Rel
Hum
%
Delta-T
°C
Wind Press
QNH
hPa
Press
MSL
hPa
Rain
since 9 am
mm
Dir
 
Spd
km/h
Gust
km/h
Spd
kts
Gust
kts
21/05:00pm 16.0 14.1 7.7 58 4.2 SSE 7 9 4 5 1019.7 - 0.0
21/04:30pm 16.5 14.5 6.9 53 4.8 E 7 9 4 5 1019.6 - 0.0
21/04:00pm 16.8 14.9 6.9 52 4.9 ESE 6 9 3 5 1019.7 - 0.0
21/03:30pm 17.0 15.2 7.1 52 5.0 ESE 6 9 3 5 1019.8 - 0.0
21/03:00pm 16.3 14.0 7.3 55 4.5 SSE 9 13 5 7 1019.7 1019.6 0.0
21/02:30pm 16.3 14.2 6.7 53 4.8 SSE 7 9 4 5 1019.8 - 0.0
21/02:00pm 16.1 13.7 6.8 54 4.6 SSE 9 13 5 7 1019.9 - 0.0
21/01:30pm 16.0 13.6 7.0 55 4.5 SSW 9 13 5 7 1020.3 - 0.0
21/01:00pm 15.7 13.3 7.2 57 4.2 S 9 13 5 7 1020.5 - 0.0
21/12:30pm 15.7 13.7 6.4 54 4.6 SSE 6 7 3 4 1021.0 - 0.0
21/12:00pm 15.3 13.2 6.6 56 4.3 SSE 7 11 4 6 1021.3 1021.2 0.0
21/11:30am 14.7 12.4 5.8 55 4.3 E 7 15 4 8 1021.5 - 0.0
21/11:00am 14.5 12.7 7.1 61 3.7 ENE 6 11 3 6 1021.9 - 0.0
21/10:30am 13.5 11.0 8.1 70 2.7 E 11 15 6 8 1022.1 - 0.0
21/10:00am 12.4 10.6 8.1 75 2.1 E 7 13 4 7 1022.6 - 0.0
21/09:30am 11.8 10.0 7.9 77 1.9 ESE 7 11 4 6 1022.8 - 0.0
21/09:00am 10.0 7.9 6.7 80 1.6 E 7 11 4 6 1022.9 1022.8 0.0
21/08:30am 8.4 7.2 4.8 78 1.6 CALM 0 0 0 0 1023.2 - 0.0
21/08:00am 6.7 4.3 4.5 86 1.0 SE 6 9 3 5 1022.8 - 0.0
21/07:30am 5.7 4.0 4.2 90 0.6 S 2 6 1 3 1022.6 - 0.0
21/07:00am 4.7 3.3 3.8 94 0.4 CALM 0 0 0 0 1022.3 - 0.0
21/06:30am 4.1 2.6 3.1 93 0.4 CALM 0 0 0 0 1022.0 - 0.0
21/06:00am 4.8 3.4 3.8 93 0.4 CALM 0 0 0 0 1021.5 1021.4 0.0
21/05:30am 4.9 3.5 3.7 92 0.5 CALM 0 0 0 0 1021.3 - 0.0
21/05:00am 5.1 3.8 3.9 92 0.5 CALM 0 0 0 0 1021.1 - 0.0
21/04:30am 5.1 3.8 4.1 93 0.4 CALM 0 0 0 0 1021.2 - 0.0
21/04:00am 4.7 3.3 3.5 92 0.5 CALM 0 0 0 0 1020.6 - 0.0
21/03:30am 5.3 4.0 4.3 93 0.4 CALM 0 0 0 0 1020.5 - 0.0
21/03:00am 5.1 2.7 4.1 93 0.4 NW 6 6 3 3 1020.5 1020.4 0.0
21/02:30am 4.9 3.5 3.4 90 0.6 CALM 0 0 0 0 1020.7 - 0.0
21/02:00am 5.9 4.7 4.4 90 0.6 CALM 0 0 0 0 1021.0 - 0.0
21/01:30am 6.3 5.1 4.8 90 0.7 CALM 0 0 0 0 1021.0 - 0.0
21/01:00am 6.1 4.9 4.4 89 0.7 CALM 0 0 0 0 1020.8 - 0.0
21/12:30am 6.7 4.4 5.0 89 0.8 S 6 7 3 4 1020.8 - 0.0
21/12:00am 6.7 4.8 4.9 88 0.8 WSW 4 6 2 3 1020.7 1020.6 0.0
 
Date/Time
EST
Temp
°C
App
Temp
°C
Dew
Point
Rel
Hum
%
Delta-T
°C
Wind Press
QNH
hPa
Press
MSL
hPa
Rain
since 9 am
mm
Dir
 
Spd
km/h
Gust
km/h
Spd
kts
Gust
kts
20/11:30pm 7.5 6.5 5.5 87 0.9 CALM 0 0 0 0 1020.5 - 0.0
20/11:00pm 6.7 5.5 4.4 85 1.0 CALM 0 6 0 3 1020.7 - 0.0
20/10:30pm 7.5 5.3 5.1 85 1.1 E 6 7 3 4 1020.9 - 0.0
20/10:00pm 8.4 6.3 5.9 84 1.1 SE 6 7 3 4 1020.9 - 0.0
20/09:30pm 9.1 7.2 5.1 76 1.8 N 4 9 2 5 1020.6 - 0.0
20/09:00pm 10.1 9.1 5.5 73 2.1 CALM 0 0 0 0 1020.4 1020.3 0.0
20/08:30pm 10.8 9.8 5.6 70 2.4 CALM 0 0 0 0 1020.4 - 0.0
20/08:00pm 11.3 9.8 5.2 66 2.8 ENE 2 6 1 3 1020.2 - 0.0
20/07:30pm 11.2 9.6 4.4 63 3.1 W 2 6 1 3 1020.0 - 0.0
20/07:00pm 12.3 9.8 4.0 57 3.8 WSW 6 6 3 3 1019.8 - 0.0
20/06:30pm 12.9 10.2 3.8 54 4.1 SSW 7 9 4 5 1019.6 - 0.0
20/06:00pm 13.7 9.8 3.2 49 4.7 SSW 13 22 7 12 1019.2 1019.1 0.0
20/05:30pm 14.0 10.9 3.8 50 4.7 WSW 9 15 5 8 1019.0 - 0.0
20/05:00pm 14.6 11.5 3.7 48 5.0 WSW 9 13 5 7 1018.7 - 0.0
20/04:30pm 14.7 11.2 3.5 47 5.1 WSW 11 15 6 8 1018.6 - 0.0
20/04:00pm 15.1 10.9 3.9 47 5.2 WSW 15 20 8 11 1018.3 - 0.0
20/03:30pm 14.9 10.4 4.3 49 4.9 WSW 17 20 9 11 1018.3 - 0.0
20/03:00pm 15.0 10.5 4.4 49 5.0 SW 17 22 9 12 1018.2 1018.1 0.0
20/02:30pm 15.6 11.6 4.9 49 5.1 WSW 15 22 8 12 1018.1 - 0.0
20/02:00pm 15.8 12.3 5.4 50 5.0 W 13 24 7 13 1018.1 - 0.0
20/01:30pm 15.0 10.6 5.0 51 4.7 WNW 17 20 9 11 1018.3 - 0.0
20/01:00pm 15.1 10.7 4.8 50 4.9 W 17 22 9 12 1018.6 - 0.0
20/12:30pm 15.0 11.7 6.6 57 4.1 W 13 19 7 10 1018.9 - 0.0
20/12:00pm 14.2 12.6 7.9 66 3.1 SW 6 13 3 7 1019.3 1019.2 0.0
20/11:30am 13.3 11.5 8.0 70 2.6 W 7 11 4 6 1019.8 - 0.0
20/11:00am 12.7 12.3 8.2 74 2.2 CALM 0 0 0 0 1020.0 - 0.0
20/10:30am 11.6 10.5 8.3 80 1.6 SSE 4 7 2 4 1020.1 - 0.0
20/10:00am 11.0 9.5 8.4 84 1.3 SSE 6 7 3 4 1020.1 - 0.0
20/09:30am 10.8 9.9 7.7 81 1.5 ESE 2 7 1 4 1020.2 - 0.0
20/09:00am 10.6 10.2 8.4 86 1.1 CALM 0 0 0 0 1020.3 1020.2 0.0
20/08:30am 7.6 6.7 5.9 89 0.8 CALM 0 0 0 0 1020.1 - 0.0
20/08:00am 6.4 5.3 4.9 90 0.7 CALM 0 6 0 3 1019.9 - 0.0
20/07:30am 5.5 4.4 5.1 97 0.2 CALM 0 0 0 0 1019.6 - 0.0
20/07:00am 4.2 2.8 3.8 97 0.2 CALM 0 0 0 0 1019.3 - 0.0
20/06:30am 4.0 2.6 3.4 96 0.2 CALM 0 0 0 0 1019.1 - 0.0
20/06:00am 4.5 3.2 4.1 97 0.2 CALM 0 0 0 0 1018.9 1018.8 0.0
20/05:30am 4.5 3.2 3.9 96 0.3 CALM 0 0 0 0 1018.6 - 0.0
20/05:00am 4.7 3.0 4.0 95 0.3 NNW 2 7 1 4 1018.3 - 0.0
20/04:30am 4.4 3.0 3.7 95 0.3 CALM 0 0 0 0 1017.9 - 0.0
20/04:00am 5.0 3.8 4.4 96 0.3 CALM 0 2 0 1 1017.9 - 0.0
20/03:30am 4.3 2.9 3.6 95 0.3 CALM 0 0 0 0 1017.7 - 0.0
20/03:00am 5.4 4.2 4.7 95 0.3 CALM 0 0 0 0 1017.7 1017.6 0.0
20/02:30am 5.4 4.2 4.7 95 0.3 CALM 0 0 0 0 1017.6 - 0.0
20/02:00am 5.6 4.4 4.7 94 0.4 CALM 0 2 0 1 1017.7 - 0.0
20/01:30am 6.0 4.5 5.1 94 0.4 E 2 6 1 3 1017.7 - 0.0
20/01:00am 6.9 4.8 6.0 94 0.4 SSE 6 9 3 5 1017.8 - 0.0
20/12:30am 6.6 5.6 5.7 94 0.4 CALM 0 0 0 0 1017.9 - 0.0
20/12:18am 6.7 5.7 5.8 94 0.4 CALM 0 0 0 0 1017.9 - 0.0
20/12:00am 6.6 5.6 5.6 93 0.4 CALM 0 0 0 0 1017.8 1017.7 0.0
 
Date/Time
EST
Temp
°C
App
Temp
°C
Dew
Point
Rel
Hum
%
Delta-T
°C
Wind Press
QNH
hPa
Press
MSL
hPa
Rain
since 9 am
mm
Dir
 
Spd
km/h
Gust
km/h
Spd
kts
Gust
kts
19/11:58pm 6.6 5.6 5.6 93 0.4 CALM 0 0 0 0 1017.9 - 0.0
19/11:43pm 7.2 6.4 6.3 94 0.4 CALM 0 0 0 0 1017.8 - 0.0
19/11:30pm 7.2 6.4 6.5 95 0.3 CALM 0 0 0 0 1017.9 - 0.0
19/11:22pm 7.4 6.6 6.7 95 0.3 CALM 0 0 0 0 1017.9 - 0.0
19/11:00pm 7.3 6.4 5.9 91 0.6 CALM 0 0 0 0 1018.0 - 0.0
19/10:30pm 7.7 6.3 5.5 86 1.0 E 2 6 1 3 1018.0 - 0.0
19/10:00pm 8.5 7.6 6.1 85 1.1 CALM 0 0 0 0 1018.0 - 0.0
19/09:30pm 9.1 8.3 6.4 83 1.3 CALM 0 0 0 0 1018.1 - 0.0
19/09:00pm 9.8 9.0 6.3 79 1.6 CALM 0 6 0 3 1018.0 1017.9 0.0
19/08:30pm 10.7 9.9 6.5 75 2.0 CALM 0 0 0 0 1017.9 - 0.0
19/08:00pm 11.2 9.6 6.5 73 2.2 N 4 7 2 4 1017.8 - 0.0
19/07:30pm 11.1 8.8 5.8 70 2.5 NNW 7 9 4 5 1017.7 - 0.0
19/07:00pm 12.3 10.0 5.9 65 3.0 NNW 7 9 4 5 1017.6 - 0.0
19/06:30pm 12.5 9.5 5.9 64 3.1 W 11 13 6 7 1017.5 - 0.0
19/06:00pm 12.8 9.7 5.5 61 3.4 W 11 15 6 8 1017.2 1017.1 0.0
19/05:30pm 14.4 10.9 5.5 55 4.2 WNW 13 15 7 8 1016.9 - 0.0
19/05:00pm 16.2 12.3 5.5 49 5.2 WNW 15 19 8 10 1016.8 - 0.0
19/04:30pm 17.0 13.2 5.6 47 5.6 WNW 15 22 8 12 1016.8 - 0.0
19/04:00pm 17.2 12.9 5.2 45 5.8 NW 17 24 9 13 1016.8 - 0.0
19/03:30pm 17.4 14.0 5.7 46 5.7 WNW 13 24 7 13 1016.9 - 0.0
19/03:00pm 17.5 14.1 6.1 47 5.6 W 13 19 7 10 1016.9 1016.7 0.0
19/02:30pm 17.5 14.3 6.7 49 5.4 NW 13 22 7 12 1017.0 - 0.0
19/02:00pm 17.0 13.7 6.2 49 5.3 W 13 24 7 13 1017.3 - 0.0
19/01:30pm 17.2 14.2 6.1 48 5.5 WNW 11 24 6 13 1017.5 - 0.0
19/01:00pm 16.2 12.3 5.2 48 5.3 SW 15 22 8 12 1018.0 - 0.0
19/12:30pm 16.3 12.8 5.3 48 5.3 W 13 30 7 16 1018.5 - 0.0
19/12:00pm 15.3 12.0 4.4 48 5.1 SSE 11 15 6 8 1019.0 1018.9 0.0
19/11:30am 15.3 12.6 3.8 46 5.3 S 7 15 4 8 1019.2 - 0.0
19/11:00am 14.2 11.2 3.9 50 4.7 S 9 13 5 7 1019.5 - 0.0
19/10:30am 14.1 12.3 5.5 56 4.1 ESE 4 7 2 4 1019.7 - 0.0
19/10:00am 11.9 9.7 5.1 63 3.2 S 6 11 3 6 1019.8 - 0.0
19/09:30am 11.0 8.1 4.7 65 2.9 SSE 9 13 5 7 1019.8 - 0.0
19/09:00am 10.4 8.0 5.2 70 2.4 SSE 7 9 4 5 1019.9 1019.8 0.4
19/08:30am 8.7 5.9 5.1 78 1.6 S 9 11 5 6 1019.8 - 0.4
19/08:00am 7.5 6.3 4.8 83 1.2 CALM 0 0 0 0 1019.4 - 0.4
19/07:30am 6.6 5.5 5.1 90 0.7 CALM 0 0 0 0 1019.2 - 0.4
19/07:00am 4.6 3.2 3.3 91 0.5 CALM 0 4 0 2 1018.8 - 0.4
19/06:30am 5.1 3.7 3.6 90 0.6 CALM 0 6 0 3 1018.6 - 0.4
19/06:00am 4.6 3.1 2.9 89 0.7 CALM 0 6 0 3 1018.5 1018.4 0.4
19/05:30am 5.2 3.0 3.5 89 0.7 N 4 6 2 3 1018.2 - 0.4
19/05:00am 5.9 4.6 3.9 87 0.9 CALM 0 0 0 0 1018.1 - 0.4
19/04:30am 5.9 3.7 3.4 84 1.1 E 4 7 2 4 1017.8 - 0.4
19/04:00am 6.5 3.1 3.8 83 1.2 E 11 13 6 7 1017.7 - 0.4
19/03:30am 8.3 5.8 3.9 74 1.9 SSW 6 9 3 5 1017.5 - 0.4
19/03:00am 8.7 7.4 4.1 73 2.0 CALM 0 6 0 3 1017.4 1017.3 0.4
19/02:30am 9.0 5.9 3.6 69 2.4 W 9 13 5 7 1017.4 - 0.4
19/02:00am 9.8 6.0 4.0 67 2.6 W 13 17 7 9 1017.5 - 0.4
19/01:30am 10.3 6.6 4.2 66 2.7 WSW 13 17 7 9 1017.5 - 0.4
19/01:00am 11.0 7.3 4.7 65 2.9 WSW 13 17 7 9 1017.3 - 0.4
19/12:30am 11.2 7.3 5.3 67 2.7 W 15 19 8 10 1017.4 - 0.4
19/12:00am 10.5 6.9 5.1 69 2.5 W 13 17 7 9 1017.3 1017.2 0.4
 
Date/Time
EST
Temp
°C
App
Temp
°C
Dew
Point
Rel
Hum
%
Delta-T
°C
Wind Press
QNH
hPa
Press
MSL
hPa
Rain
since 9 am
mm
Dir
 
Spd
km/h
Gust
km/h
Spd
kts
Gust
kts
18/11:30pm 11.0 7.0 5.1 67 2.7 W 15 19 8 10 1017.2 - 0.4
18/11:00pm 11.5 7.2 5.4 66 2.8 W 17 20 9 11 1017.2 - 0.4
18/10:30pm 12.0 8.2 5.6 65 3.0 WSW 15 22 8 12 1017.4 - 0.4
18/10:00pm 12.3 7.9 6.4 67 2.8 WSW 19 30 10 16 1017.3 - 0.4
18/09:30pm 12.2 8.7 7.1 71 2.5 W 15 19 8 10 1017.4 - 0.4
18/09:00pm 12.4 8.9 7.3 71 2.5 WNW 15 19 8 10 1017.1 1016.9 0.4
18/08:30pm 13.0 10.0 9.1 77 2.0 W 15 20 8 11 1017.0 - 0.4
18/08:00pm 13.3 10.9 9.9 80 1.8 W 13 20 7 11 1016.8 - 0.4
18/07:30pm 13.6 11.0 10.6 82 1.6 W 15 19 8 10 1016.5 - 0.4
18/07:00pm 13.9 11.8 9.9 77 2.1 W 11 19 6 10 1016.3 - 0.4
18/06:30pm 14.7 13.4 11.1 79 1.9 NW 9 15 5 8 1015.8 - 0.4
18/06:15pm 15.4 14.8 11.6 78 2.1 NW 6 9 3 5 1015.6 - 0.4
18/06:04pm 15.1 14.6 11.9 81 1.7 N 6 7 3 4 1015.5 - 0.4
18/06:00pm 15.4 15.3 12.0 80 1.9 NNE 4 7 2 4 1015.5 1015.4 0.4
18/05:30pm 15.9 12.7 13.0 83 1.6 SW 22 30 12 16 1015.1 - 0.4

Other Formats:

Comma delimited format used in spreadsheet applications
http://www.bom.gov.au/fwo/IDN60801/IDN60801.95896.axf

JavaScript Object Notation format (JSON) in row-major order
http://www.bom.gov.au/fwo/IDN60801/IDN60801.95896.json